Time;durP1;ratioP1;P1;durP2;ratioP2;P2;SDS_P1;SDS_P2;PMS_P1;PMS_P2;Temp;Humidity;BMP_temperature;BMP_pressure;BME280_temperature;BME280_humidity;BME280_pressure;Samples;Min_cycle;Max_cycle;Signal;HPM_P1;HPM_P2
2021/01/02 00:02:17;;;;;;;4.83;1.20;;;20.00;95.30;;;;;;4996058;28;20170;-72
2021/01/02 00:05:05;;;;;;;5.80;1.27;;;19.90;94.90;;;;;;4990097;28;20820;-74
2021/01/02 00:07:57;;;;;;;3.57;1.30;;;20.00;95.00;;;;;;4981135;28;20273;-73
2021/01/02 00:11:02;;;;;;;6.10;1.50;;;20.10;95.10;;;;;;4989037;28;20269;-74
2021/01/02 00:13:48;;;;;;;6.77;1.27;;;20.10;95.10;;;;;;4995006;28;20174;-75
2021/01/02 00:16:44;;;;;;;3.90;1.03;;;20.10;95.10;;;;;;4995032;28;20577;-72
2021/01/02 00:19:39;;;;;;;3.87;1.20;;;20.20;94.80;;;;;;4995615;28;20208;-73
2021/01/02 00:22:28;;;;;;;2.53;0.93;;;20.30;94.70;;;;;;4995809;28;20174;-74
2021/01/02 00:24:57;;;;;;;2.17;0.90;;;20.50;94.30;;;;;;4985518;28;20209;-73
2021/01/02 00:27:58;;;;;;;3.53;0.93;;;20.50;94.00;;;;;;4979329;28;20225;-74
2021/01/02 00:30:49;;;;;;;2.00;0.90;;;20.50;93.90;;;;;;4993611;28;20265;-73
2021/01/02 00:33:38;;;;;;;4.00;0.83;;;20.60;94.10;;;;;;4994635;28;20174;-73
2021/01/02 00:36:35;;;;;;;3.03;0.80;;;20.80;93.90;;;;;;4995495;28;20201;-73
2021/01/02 00:39:03;;;;;;;3.00;0.80;;;21.10;93.40;;;;;;4994350;28;20190;-73
2021/01/02 00:41:35;;;;;;;9.00;0.93;;;21.30;92.90;;;;;;4995449;28;20167;-73
2021/01/02 00:44:05;;;;;;;2.40;0.77;;;21.60;92.50;;;;;;4995121;28;20213;-73
2021/01/02 00:46:34;;;;;;;3.70;0.90;;;21.60;91.80;;;;;;4994971;28;20213;-74
2021/01/02 00:49:08;;;;;;;3.13;0.73;;;21.80;91.70;;;;;;4995012;28;20208;-73
2021/01/02 00:51:54;;;;;;;2.00;0.80;;;22.00;92.00;;;;;;4993843;28;20538;-73
2021/01/02 00:54:54;;;;;;;0.83;0.40;;;22.10;90.80;;;;;;4995073;28;20174;-74
2021/01/02 00:57:41;;;;;;;1.17;0.43;;;22.10;91.40;;;;;;4995762;28;20282;-72
2021/01/02 01:00:09;;;;;;;3.23;0.80;;;22.10;91.20;;;;;;4995985;28;20178;-73
2021/01/02 01:03:06;;;;;;;2.00;0.57;;;22.00;91.40;;;;;;4994162;28;20525;-73
2021/01/02 01:05:38;;;;;;;3.87;0.60;;;22.00;91.30;;;;;;4995093;28;20622;-73
2021/01/02 01:08:08;;;;;;;3.57;1.00;;;22.00;91.00;;;;;;4995719;28;20209;-74
2021/01/02 01:10:36;;;;;;;2.40;0.70;;;22.10;91.50;;;;;;4987117;28;20276;-74
2021/01/02 01:13:08;;;;;;;1.07;0.40;;;22.30;91.00;;;;;;4983033;28;20186;-74
2021/01/02 01:15:35;;;;;;;1.67;0.70;;;22.50;90.60;;;;;;4975908;28;20210;-73
2021/01/02 01:18:12;;;;;;;1.53;0.50;;;22.40;90.10;;;;;;4978883;28;20185;-74
2021/01/02 01:20:48;;;;;;;1.30;0.70;;;22.60;90.50;;;;;;4988001;28;20186;-74
2021/01/02 01:23:48;;;;;;;1.70;0.50;;;22.80;90.20;;;;;;4974961;28;20174;-72
2021/01/02 01:26:27;;;;;;;0.60;0.40;;;23.30;89.80;;;;;;4977727;28;20217;-72
2021/01/02 01:28:59;;;;;;;1.47;0.50;;;23.40;88.40;;;;;;4995345;28;20512;-72
2021/01/02 01:31:43;;;;;;;2.60;0.80;;;23.60;88.90;;;;;;4995164;28;20240;-74
2021/01/02 01:34:21;;;;;;;2.70;1.00;;;23.60;85.80;;;;;;4995676;28;20694;-72
2021/01/02 01:36:50;;;;;;;1.57;0.73;;;23.80;86.70;;;;;;4995614;28;20200;-73
2021/01/02 01:39:21;;;;;;;2.10;0.40;;;23.90;86.70;;;;;;4995409;28;20188;-71
2021/01/02 01:41:58;;;;;;;1.43;0.60;;;24.00;86.30;;;;;;4995437;28;20186;-73
2021/01/02 01:44:54;;;;;;;1.63;0.50;;;23.90;85.30;;;;;;4996002;28;20185;-74
2021/01/02 01:47:41;;;;;;;2.47;0.80;;;23.20;87.00;;;;;;4994230;28;20711;-73
2021/01/02 01:50:35;;;;;;;1.67;0.60;;;23.30;88.10;;;;;;4994181;28;20206;-73
2021/01/02 01:53:34;;;;;;;1.33;0.60;;;23.70;87.90;;;;;;4994821;28;20316;-73
2021/01/02 01:56:15;;;;;;;1.73;0.50;;;24.00;85.00;;;;;;4994355;28;20177;-73
2021/01/02 01:58:54;;;;;;;0.87;0.40;;;23.90;85.20;;;;;;4994294;28;20548;-73
2021/01/02 02:01:25;;;;;;;2.67;0.63;;;24.00;85.90;;;;;;4974494;28;20186;-73
2021/01/02 02:04:10;;;;;;;3.60;0.90;;;24.00;85.30;;;;;;4974739;28;20615;-73
2021/01/02 02:06:44;;;;;;;3.27;0.97;;;24.20;84.20;;;;;;4975026;28;20280;-74
2021/01/02 02:09:21;;;;;;;2.47;0.70;;;24.20;84.20;;;;;;4980847;28;20210;-73
2021/01/02 02:12:04;;;;;;;1.97;0.70;;;24.10;83.60;;;;;;4993913;28;20196;-73
2021/01/02 02:15:02;;;;;;;2.70;0.70;;;24.10;83.70;;;;;;4993612;28;20549;-74
2021/01/02 02:17:45;;;;;;;1.90;0.70;;;24.10;84.60;;;;;;4993361;28;20253;-73
2021/01/02 02:20:17;;;;;;;3.13;0.60;;;24.00;85.10;;;;;;4993785;28;20224;-73
2021/01/02 02:22:45;;;;;;;4.50;0.70;;;23.90;87.30;;;;;;4993236;28;20181;-74
2021/01/02 02:25:17;;;;;;;1.60;0.67;;;24.00;85.90;;;;;;4990011;28;20178;-73
2021/01/02 02:27:47;;;;;;;2.17;0.53;;;24.30;85.60;;;;;;4993240;28;20331;-74
2021/01/02 02:30:16;;;;;;;3.93;1.00;;;24.60;84.10;;;;;;4986262;28;20213;-77
2021/01/02 02:32:50;;;;;;;3.77;0.80;;;24.70;83.50;;;;;;4990013;28;20213;-74
2021/01/02 02:35:19;;;;;;;3.03;0.90;;;24.80;83.00;;;;;;4983417;28;20173;-73
2021/01/02 02:37:49;;;;;;;2.23;0.70;;;25.00;82.90;;;;;;4982222;28;20669;-75
2021/01/02 02:40:19;;;;;;;2.10;0.80;;;24.80;82.20;;;;;;4993167;28;20181;-73
2021/01/02 02:42:48;;;;;;;2.70;0.90;;;24.70;83.50;;;;;;4990333;28;20275;-73
2021/01/02 02:45:17;;;;;;;2.53;0.80;;;24.20;83.80;;;;;;4979653;28;20260;-73
2021/01/02 02:47:46;;;;;;;2.80;0.70;;;24.00;84.70;;;;;;4989763;28;20188;-74
2021/01/02 02:50:27;;;;;;;6.40;1.17;;;23.80;86.70;;;;;;4989127;28;20178;-74
2021/01/02 02:53:12;;;;;;;2.87;0.80;;;23.50;87.60;;;;;;4982696;28;20264;-74
2021/01/02 02:55:44;;;;;;;4.17;0.83;;;23.10;88.50;;;;;;4986635;28;20359;-73
2021/01/02 02:58:12;;;;;;;4.13;0.80;;;23.00;89.60;;;;;;4980211;28;20181;-73
2021/01/02 03:00:40;;;;;;;5.30;1.20;;;22.90;90.20;;;;;;4987053;28;20190;-73
2021/01/02 03:03:11;;;;;;;3.93;1.30;;;22.80;90.40;;;;;;4980963;28;20171;-73
2021/01/02 03:05:40;;;;;;;4.40;1.30;;;22.70;90.80;;;;;;4988975;28;20722;-74
2021/01/02 03:08:08;;;;;;;4.13;1.33;;;22.60;91.20;;;;;;4989741;28;20272;-72
2021/01/02 03:10:35;;;;;;;3.77;1.30;;;22.50;91.30;;;;;;4990063;28;20190;-72
2021/01/02 03:13:03;;;;;;;3.03;1.30;;;22.30;91.40;;;;;;4983646;28;20522;-72
2021/01/02 03:15:39;;;;;;;5.17;1.20;;;22.30;91.60;;;;;;4985387;28;20186;-73
2021/01/02 03:18:07;;;;;;;5.53;1.27;;;22.10;91.70;;;;;;4989654;28;20178;-72
2021/01/02 03:20:34;;;;;;;3.43;1.27;;;22.10;91.80;;;;;;4986616;28;20309;-73
2021/01/02 03:23:02;;;;;;;5.40;1.23;;;22.10;91.90;;;;;;4989110;28;20178;-73
2021/01/02 03:25:29;;;;;;;3.13;1.37;;;22.00;92.10;;;;;;4992264;28;20222;-73
2021/01/02 03:27:58;;;;;;;2.20;1.20;;;22.00;92.30;;;;;;4984751;28;20182;-72
2021/01/02 03:30:29;;;;;;;4.00;1.20;;;22.00;92.10;;;;;;4988793;28;20193;-73
2021/01/02 03:32:56;;;;;;;4.10;1.47;;;22.00;92.50;;;;;;4988702;28;20178;-73
2021/01/02 03:35:24;;;;;;;4.57;1.23;;;21.90;93.00;;;;;;4985933;28;20178;-73
2021/01/02 03:37:51;;;;;;;5.17;2.10;;;21.90;93.60;;;;;;4990435;28;20174;-74
2021/01/02 03:40:19;;;;;;;4.70;2.43;;;21.70;94.90;;;;;;4986714;28;20190;-74
2021/01/02 03:42:47;;;;;;;4.90;2.00;;;21.60;95.50;;;;;;4992230;28;20224;-74
2021/01/02 03:45:17;;;;;;;3.93;2.00;;;21.50;96.40;;;;;;4989641;28;20273;-74
2021/01/02 03:47:48;;;;;;;4.27;1.70;;;21.40;97.00;;;;;;4991475;28;20217;-74
2021/01/02 03:50:16;;;;;;;3.97;1.83;;;21.30;96.60;;;;;;4984132;28;20244;-76
2021/01/02 03:52:44;;;;;;;6.80;2.17;;;21.20;96.40;;;;;;4991574;28;20191;-75
2021/01/02 03:55:13;;;;;;;4.47;2.00;;;21.10;97.20;;;;;;4989828;28;20248;-74
2021/01/02 03:57:40;;;;;;;2.20;1.20;;;21.10;97.80;;;;;;4990757;28;20574;-76
2021/01/02 04:00:09;;;;;;;5.10;2.00;;;21.00;97.40;;;;;;4986168;28;20170;-75
2021/01/02 04:02:36;;;;;;;4.23;1.90;;;21.00;97.60;;;;;;4989561;28;20549;-77
2021/01/02 04:05:07;;;;;;;3.10;1.40;;;21.00;98.30;;;;;;4986596;28;20226;-78
2021/01/02 04:07:34;;;;;;;3.10;1.50;;;21.10;99.00;;;;;;4990211;28;20204;-78
2021/01/02 04:10:02;;;;;;;5.33;1.37;;;21.00;98.90;;;;;;4982555;28;20189;-78
2021/01/02 04:12:29;;;;;;;7.53;1.70;;;21.10;99.10;;;;;;4991183;28;20224;-78
2021/01/02 04:14:57;;;;;;;3.40;1.50;;;21.10;98.20;;;;;;4992478;28;20200;-76
2021/01/02 04:17:24;;;;;;;4.40;1.20;;;21.10;98.70;;;;;;4990489;28;20186;-76
2021/01/02 04:19:51;;;;;;;4.53;1.57;;;21.10;98.50;;;;;;4979031;28;20193;-78
2021/01/02 04:22:19;;;;;;;3.30;1.10;;;21.20;98.50;;;;;;4987382;28;20209;-78
2021/01/02 04:24:46;;;;;;;2.13;1.10;;;21.20;98.40;;;;;;4991213;28;20190;-78
2021/01/02 04:27:13;;;;;;;2.13;1.30;;;21.20;98.20;;;;;;4987652;28;20249;-76
2021/01/02 04:29:41;;;;;;;3.93;1.20;;;21.20;98.10;;;;;;4985314;28;20202;-75
2021/01/02 04:32:08;;;;;;;1.87;1.00;;;21.10;98.40;;;;;;4989712;28;20209;-78
2021/01/02 04:34:36;;;;;;;4.03;1.30;;;21.20;98.10;;;;;;4989256;28;20716;-79
2021/01/02 04:37:03;;;;;;;3.03;1.20;;;21.20;98.10;;;;;;4989315;28;20186;-79
2021/01/02 04:39:30;;;;;;;2.63;1.10;;;21.40;98.20;;;;;;4985298;28;20190;-78
2021/01/02 04:41:58;;;;;;;2.27;1.00;;;21.60;98.20;;;;;;4987851;28;20197;-78
2021/01/02 04:44:27;;;;;;;3.03;1.00;;;21.70;97.50;;;;;;4988492;28;20178;-79
2021/01/02 04:46:56;;;;;;;1.33;0.80;;;21.80;96.90;;;;;;4989403;28;20695;-77
2021/01/02 04:49:23;;;;;;;2.80;1.10;;;22.00;96.70;;;;;;4982825;28;20234;-78
2021/01/02 04:51:57;;;;;;;3.57;1.53;;;22.10;96.80;;;;;;4981641;28;20244;-78
2021/01/02 04:54:25;;;;;;;3.83;1.00;;;22.10;96.30;;;;;;4984490;28;20186;-78
2021/01/02 04:56:53;;;;;;;2.87;1.30;;;22.00;96.20;;;;;;4991076;28;20186;-77
2021/01/02 04:59:26;;;;;;;3.00;0.80;;;22.00;95.90;;;;;;4986492;28;20290;-77
2021/01/02 05:01:54;;;;;;;2.07;0.90;;;22.00;95.50;;;;;;4988741;28;20201;-76
2021/01/02 05:04:22;;;;;;;2.90;1.00;;;22.00;96.20;;;;;;4986687;28;20237;-76
2021/01/02 05:06:50;;;;;;;4.57;1.30;;;22.20;95.80;;;;;;4995349;28;20222;-75
2021/01/02 05:09:17;;;;;;;6.20;1.23;;;22.30;95.30;;;;;;4988291;28;20270;-76
2021/01/02 05:11:44;;;;;;;3.57;1.20;;;22.20;95.00;;;;;;4984184;28;20583;-77
2021/01/02 05:14:12;;;;;;;3.57;1.20;;;22.10;95.40;;;;;;4988193;28;20182;-76
2021/01/02 05:16:41;;;;;;;5.97;1.60;;;22.10;95.30;;;;;;4988893;28;20194;-77
2021/01/02 05:19:16;;;;;;;2.97;1.10;;;22.30;95.20;;;;;;4989384;28;20189;-76
2021/01/02 05:21:46;;;;;;;3.70;1.17;;;22.20;95.30;;;;;;4984160;28;20254;-77
2021/01/02 05:24:15;;;;;;;4.17;1.00;;;22.00;94.80;;;;;;4991308;28;20663;-78
2021/01/02 05:26:42;;;;;;;4.27;0.83;;;22.00;95.20;;;;;;4986174;28;20297;-76
2021/01/02 05:29:19;;;;;;;3.53;1.10;;;21.90;95.20;;;;;;4991759;28;20177;-75
2021/01/02 05:31:51;;;;;;;3.27;0.93;;;21.90;95.60;;;;;;4981430;28;20190;-77
2021/01/02 05:34:24;;;;;;;7.17;1.23;;;21.90;95.50;;;;;;4990511;28;20182;-78
2021/01/02 05:37:07;;;;;;;5.50;1.47;;;21.90;95.90;;;;;;4989404;28;20213;-78
2021/01/02 05:39:49;;;;;;;6.53;1.00;;;21.80;95.20;;;;;;4981761;28;20668;-77
2021/01/02 05:42:17;;;;;;;3.77;0.97;;;21.60;94.90;;;;;;4990149;28;20185;-77
2021/01/02 05:44:45;;;;;;;7.97;1.13;;;21.60;95.70;;;;;;4989881;28;20229;-78
2021/01/02 05:47:19;;;;;;;5.03;1.10;;;21.60;95.60;;;;;;4991795;28;20226;-78
2021/01/02 05:49:50;;;;;;;7.40;1.07;;;21.60;95.60;;;;;;4982685;28;20192;-77
2021/01/02 05:52:18;;;;;;;3.57;1.03;;;21.70;95.80;;;;;;4991504;28;20325;-78
2021/01/02 05:54:50;;;;;;;1.93;0.70;;;21.80;95.30;;;;;;4990230;28;20273;-77
2021/01/02 05:57:28;;;;;;;5.13;1.00;;;21.80;95.40;;;;;;4990248;28;20189;-78
2021/01/02 05:59:59;;;;;;;6.57;1.23;;;21.80;95.20;;;;;;4990693;28;20331;-77
2021/01/02 06:02:31;;;;;;;5.77;1.13;;;21.60;95.50;;;;;;4991414;28;20182;-77
2021/01/02 06:05:12;;;;;;;3.87;1.00;;;21.60;95.80;;;;;;4985428;28;20233;-79
2021/01/02 06:07:41;;;;;;;5.40;0.97;;;21.60;95.80;;;;;;4988035;28;20198;-76
2021/01/02 06:10:10;;;;;;;4.73;1.10;;;21.60;96.00;;;;;;4984275;28;20186;-75
2021/01/02 06:12:40;;;;;;;5.60;0.90;;;21.50;95.70;;;;;;4988564;28;20575;-76
2021/01/02 06:15:16;;;;;;;6.17;0.80;;;21.50;95.90;;;;;;4988215;28;20619;-75
2021/01/02 06:17:48;;;;;;;5.37;1.00;;;21.50;95.90;;;;;;4985297;28;20546;-75
2021/01/02 06:20:17;;;;;;;2.63;0.80;;;21.50;95.80;;;;;;4986814;28;20202;-79
2021/01/02 06:22:44;;;;;;;5.13;0.83;;;21.40;95.60;;;;;;4991632;28;20197;-77
2021/01/02 06:25:14;;;;;;;3.37;1.30;;;21.40;95.70;;;;;;4988108;28;20205;-78
2021/01/02 06:27:44;;;;;;;6.30;1.30;;;21.40;96.10;;;;;;4983814;28;20630;-79
2021/01/02 06:30:17;;;;;;;2.70;0.80;;;21.30;96.40;;;;;;4988669;28;20623;-77
2021/01/02 06:32:48;;;;;;;2.67;1.03;;;21.20;97.10;;;;;;4987869;28;20215;-79
2021/01/02 06:35:15;;;;;;;5.70;1.53;;;21.30;97.40;;;;;;4986008;28;20197;-79
2021/01/02 06:37:49;;;;;;;2.97;1.10;;;21.20;97.70;;;;;;4985739;28;20194;-81
2021/01/02 06:40:29;;;;;;;4.63;0.90;;;21.10;98.20;;;;;;4990849;28;20552;-79
2021/01/02 06:42:59;;;;;;;4.30;1.00;;;20.90;98.40;;;;;;4987142;28;20192;-79
2021/01/02 06:45:44;;;;;;;3.73;1.30;;;20.80;98.80;;;;;;4980573;28;20190;-80
2021/01/02 06:48:17;;;;;;;6.20;1.47;;;20.80;99.30;;;;;;4984241;28;20624;-78
2021/01/02 06:51:01;;;;;;;3.97;1.50;;;20.80;99.40;;;;;;4987658;28;20217;-79
2021/01/02 06:53:37;;;;;;;7.07;1.70;;;20.80;99.90;;;;;;4984765;28;20193;-79
2021/01/02 06:56:10;;;;;;;5.00;1.33;;;20.80;99.90;;;;;;4985301;28;20216;-79
2021/01/02 06:58:42;;;;;;;4.93;1.50;;;20.80;99.80;;;;;;4985559;28;20196;-79
2021/01/02 07:01:16;;;;;;;5.33;1.70;;;20.70;99.90;;;;;;4985740;28;20529;-78
2021/01/02 07:03:46;;;;;;;3.97;1.30;;;20.80;99.90;;;;;;4986724;28;20229;-78
2021/01/02 07:06:19;;;;;;;3.27;0.97;;;20.70;99.90;;;;;;4982867;28;20554;-80
2021/01/02 07:08:50;;;;;;;4.03;1.23;;;20.70;99.60;;;;;;4989815;28;20174;-79
2021/01/02 07:11:40;;;;;;;2.20;0.93;;;20.60;99.80;;;;;;4983167;28;20249;-78
2021/01/02 07:14:14;;;;;;;4.43;1.00;;;20.60;99.80;;;;;;4979923;28;20538;-79
2021/01/02 07:16:55;;;;;;;4.73;1.00;;;20.60;99.80;;;;;;4982705;28;20194;-79
2021/01/02 07:19:31;;;;;;;2.93;1.00;;;20.70;99.90;;;;;;4980734;28;20611;-77
2021/01/02 07:22:20;;;;;;;2.50;1.13;;;20.60;99.90;;;;;;4989411;28;20273;-78
2021/01/02 07:25:01;;;;;;;2.20;0.90;;;20.70;99.90;;;;;;4989492;28;20194;-78
2021/01/02 07:27:36;;;;;;;2.77;0.80;;;20.60;99.90;;;;;;4989492;28;20684;-78
2021/01/02 07:30:10;;;;;;;2.50;0.83;;;20.60;99.80;;;;;;4981188;28;20228;-79
2021/01/02 07:32:39;;;;;;;3.80;1.00;;;20.60;99.90;;;;;;4984418;28;20723;-79
2021/01/02 07:35:09;;;;;;;1.93;1.00;;;20.60;99.90;;;;;;4984867;28;20651;-79
2021/01/02 07:37:39;;;;;;;4.50;0.90;;;20.60;99.90;;;;;;4987262;28;20555;-79
2021/01/02 07:40:13;;;;;;;2.90;0.90;;;20.70;99.90;;;;;;4987736;28;20663;-79
2021/01/02 07:42:51;;;;;;;3.33;0.80;;;20.60;99.70;;;;;;4988897;28;20174;-76
2021/01/02 07:45:21;;;;;;;2.53;0.60;;;20.50;99.70;;;;;;4983210;28;20170;-80
2021/01/02 07:47:54;;;;;;;5.60;0.90;;;20.40;99.90;;;;;;4985547;28;20189;-81
2021/01/02 07:50:24;;;;;;;1.07;0.60;;;20.30;99.90;;;;;;4989546;28;20182;-78
2021/01/02 07:53:02;;;;;;;1.80;0.63;;;20.30;99.90;;;;;;4987064;28;20178;-81
2021/01/02 07:55:31;;;;;;;5.80;0.90;;;20.20;99.90;;;;;;4989645;28;20213;-75
2021/01/02 07:57:58;;;;;;;2.10;0.60;;;20.20;99.90;;;;;;4990880;28;20659;-78
2021/01/02 08:00:26;;;;;;;4.63;1.20;;;20.10;99.90;;;;;;4987839;28;20197;-79
2021/01/02 08:03:05;;;;;;;3.83;1.67;;;20.10;99.90;;;;;;4982046;28;20194;-79
2021/01/02 08:05:32;;;;;;;2.80;1.13;;;20.10;99.90;;;;;;4992666;28;20241;-79
2021/01/02 08:08:02;;;;;;;3.50;1.40;;;20.10;99.90;;;;;;4983129;28;20194;-78
2021/01/02 08:10:31;;;;;;;4.77;0.80;;;20.00;99.90;;;;;;4993476;28;20206;-76
2021/01/02 08:13:02;;;;;;;2.67;0.70;;;20.00;99.90;;;;;;4992992;28;20287;-75
2021/01/02 08:15:36;;;;;;;3.43;0.90;;;20.00;99.90;;;;;;4988088;28;20206;-74
2021/01/02 08:18:11;;;;;;;4.90;2.30;;;20.00;99.90;;;;;;4990677;28;20269;-74
2021/01/02 08:20:38;;;;;;;4.00;1.27;;;19.90;99.90;;;;;;4991584;28;20181;-74
2021/01/02 08:23:10;;;;;;;8.37;5.10;;;19.90;99.90;;;;;;4989789;28;20233;-72
2021/01/02 08:25:38;;;;;;;2.67;1.30;;;19.90;99.90;;;;;;4982666;28;22211;-73
2021/01/02 08:28:06;;;;;;;5.40;0.80;;;19.80;99.90;;;;;;4987559;28;20190;-74
2021/01/02 08:30:34;;;;;;;2.17;0.70;;;19.80;99.90;;;;;;4982226;28;20607;-74
2021/01/02 08:33:02;;;;;;;3.77;0.80;;;19.90;99.90;;;;;;4990275;28;20236;-74
2021/01/02 08:35:37;;;;;;;2.30;0.70;;;19.90;99.90;;;;;;4986498;28;20186;-74
2021/01/02 08:38:12;;;;;;;1.60;0.70;;;19.90;99.90;;;;;;4990950;28;20264;-75
2021/01/02 08:40:43;;;;;;;1.93;0.70;;;19.80;99.90;;;;;;4984207;28;20549;-74
2021/01/02 08:43:29;;;;;;;0.63;0.60;;;19.80;99.90;;;;;;4989249;28;20234;-74
2021/01/02 08:46:07;;;;;;;3.67;0.80;;;19.70;99.90;;;;;;4989376;28;20237;-74
2021/01/02 08:48:44;;;;;;;6.03;3.83;;;19.70;99.90;;;;;;4984846;28;20206;-74
2021/01/02 08:51:22;;;;;;;4.53;2.67;;;19.80;99.90;;;;;;4991591;28;20545;-74
2021/01/02 08:53:49;;;;;;;6.17;2.03;;;19.80;99.90;;;;;;4981178;28;20193;-75
2021/01/02 08:56:23;;;;;;;3.57;1.57;;;19.80;99.90;;;;;;4987534;28;20187;-74
2021/01/02 08:58:51;;;;;;;2.40;0.90;;;19.70;99.90;;;;;;4989996;28;20265;-73
2021/01/02 09:01:19;;;;;;;3.77;0.87;;;19.70;99.90;;;;;;4992447;28;20753;-73
2021/01/02 09:03:46;;;;;;;5.90;1.70;;;19.60;99.90;;;;;;4989688;28;20221;-74
2021/01/02 09:06:26;;;;;;;2.63;1.10;;;19.70;99.90;;;;;;4989071;28;20733;-74
2021/01/02 09:09:08;;;;;;;2.83;1.07;;;19.70;99.90;;;;;;4984383;28;20188;-74
2021/01/02 09:11:49;;;;;;;3.63;0.93;;;19.70;99.90;;;;;;4990782;28;20205;-73
2021/01/02 09:14:19;;;;;;;3.30;0.80;;;19.60;99.90;;;;;;4984239;28;20256;-73
2021/01/02 09:17:00;;;;;;;6.43;1.53;;;19.60;99.90;;;;;;4988182;28;20179;-74
2021/01/02 09:19:28;;;;;;;5.10;1.50;;;19.60;99.90;;;;;;4989346;28;20197;-73
2021/01/02 09:21:55;;;;;;;3.73;0.77;;;19.60;99.90;;;;;;4990886;28;20269;-73
2021/01/02 09:24:23;;;;;;;3.30;1.13;;;19.50;99.90;;;;;;4988283;28;20229;-74
2021/01/02 09:26:51;;;;;;;4.87;1.57;;;19.50;99.90;;;;;;4985403;28;20219;-73
2021/01/02 09:29:19;;;;;;;3.80;1.17;;;19.60;99.90;;;;;;4985845;28;20174;-74
2021/01/02 09:31:47;;;;;;;4.53;0.70;;;19.60;99.90;;;;;;4988717;28;20540;-73
2021/01/02 09:34:14;;;;;;;1.53;0.80;;;19.60;99.90;;;;;;4989174;28;20182;-73
2021/01/02 09:36:42;;;;;;;5.47;1.20;;;19.60;99.90;;;;;;4987709;28;20267;-73
2021/01/02 09:39:09;;;;;;;2.77;1.10;;;19.60;99.90;;;;;;4988959;28;20197;-73
2021/01/02 09:41:37;;;;;;;4.63;1.10;;;19.50;99.90;;;;;;4989125;28;20197;-74
2021/01/02 09:44:04;;;;;;;7.50;1.30;;;19.50;99.90;;;;;;4989112;28;20190;-74
2021/01/02 09:46:32;;;;;;;5.63;1.20;;;19.60;99.90;;;;;;4983584;28;20245;-73
2021/01/02 09:48:59;;;;;;;5.17;1.50;;;19.60;99.90;;;;;;4986502;28;20214;-73
2021/01/02 09:51:30;;;;;;;5.60;1.13;;;19.60;99.90;;;;;;4987854;28;20209;-73
2021/01/02 09:53:57;;;;;;;6.17;2.50;;;19.60;99.90;;;;;;4988620;28;20182;-73
2021/01/02 09:56:24;;;;;;;6.97;3.67;;;19.50;99.90;;;;;;4980896;28;20222;-72
2021/01/02 09:58:53;;;;;;;8.83;1.93;;;19.50;99.90;;;;;;4988837;28;20209;-73
2021/01/02 10:01:20;;;;;;;6.07;1.20;;;19.50;99.90;;;;;;4988120;28;20178;-73
2021/01/02 10:03:47;;;;;;;7.00;1.20;;;19.60;99.90;;;;;;4987562;28;20234;-73
2021/01/02 10:06:15;;;;;;;2.83;0.93;;;19.60;99.90;;;;;;4982989;28;20214;-72
2021/01/02 10:08:42;;;;;;;4.87;1.30;;;19.60;99.90;;;;;;4990315;28;20197;-72
2021/01/02 10:11:10;;;;;;;4.90;1.17;;;19.60;99.90;;;;;;4986136;28;20190;-73
2021/01/02 10:13:37;;;;;;;5.03;1.40;;;19.60;99.90;;;;;;4990583;28;20235;-72
2021/01/02 10:16:04;;;;;;;6.33;1.63;;;19.60;99.90;;;;;;4982917;28;20234;-73
2021/01/02 10:18:32;;;;;;;4.27;1.40;;;19.60;99.90;;;;;;4987572;28;20182;-73
2021/01/02 10:20:59;;;;;;;4.17;1.30;;;19.60;99.90;;;;;;4987935;28;20264;-73
2021/01/02 10:23:27;;;;;;;3.00;0.87;;;19.60;99.90;;;;;;4988551;28;20636;-73
2021/01/02 10:25:54;;;;;;;4.63;1.17;;;19.60;99.90;;;;;;4985887;28;20207;-73
2021/01/02 10:28:21;;;;;;;2.07;0.73;;;19.60;99.90;;;;;;4977796;28;20252;-73
2021/01/02 10:30:49;;;;;;;4.10;0.97;;;19.60;99.90;;;;;;4989377;28;20178;-74
2021/01/02 10:33:16;;;;;;;3.23;1.27;;;19.60;99.90;;;;;;4980010;28;20228;-74
2021/01/02 10:35:43;;;;;;;5.63;1.20;;;19.60;99.90;;;;;;4989227;28;20182;-74
2021/01/02 10:38:11;;;;;;;3.40;1.10;;;19.50;99.90;;;;;;4991107;28;20182;-73
2021/01/02 10:40:38;;;;;;;3.20;1.00;;;19.50;99.90;;;;;;4991015;28;20178;-74
2021/01/02 10:43:05;;;;;;;6.27;1.20;;;19.50;99.90;;;;;;4992590;28;20603;-73
2021/01/02 10:45:33;;;;;;;6.13;1.30;;;19.40;99.90;;;;;;4991831;28;20257;-73
2021/01/02 10:48:00;;;;;;;8.53;1.40;;;19.40;99.90;;;;;;4977419;28;20182;-72
2021/01/02 10:50:27;;;;;;;4.43;1.00;;;19.40;99.90;;;;;;4975035;28;20178;-72
2021/01/02 10:52:54;;;;;;;6.17;1.50;;;19.40;99.90;;;;;;4989930;28;20711;-73
2021/01/02 10:55:22;;;;;;;6.23;1.27;;;19.40;99.90;;;;;;4992393;28;20194;-73
2021/01/02 10:57:49;;;;;;;8.70;1.20;;;19.40;99.90;;;;;;4993341;28;20172;-72
2021/01/02 11:00:17;;;;;;;6.27;1.10;;;19.50;99.90;;;;;;4992461;28;20186;-72
2021/01/02 11:02:44;;;;;;;8.47;1.47;;;19.50;99.90;;;;;;4993252;28;20204;-72
2021/01/02 11:05:12;;;;;;;7.13;1.43;;;19.50;99.90;;;;;;4992954;28;20718;-73
2021/01/02 11:07:40;;;;;;;7.27;1.70;;;19.50;99.90;;;;;;4993161;28;20279;-73
2021/01/02 11:10:08;;;;;;;9.83;1.87;;;19.50;99.90;;;;;;4978581;28;20260;-72
2021/01/02 11:12:35;;;;;;;10.30;2.40;;;19.50;99.90;;;;;;4993275;28;20181;-72
2021/01/02 11:15:03;;;;;;;6.60;1.70;;;19.50;99.90;;;;;;4988743;28;20179;-72
2021/01/02 11:17:31;;;;;;;8.93;1.83;;;19.60;99.90;;;;;;4980415;28;20178;-72
2021/01/02 11:19:58;;;;;;;4.83;1.30;;;19.60;99.90;;;;;;4988956;28;20247;-72
2021/01/02 11:22:25;;;;;;;8.57;1.60;;;19.60;99.90;;;;;;4992509;28;20181;-72
2021/01/02 11:24:52;;;;;;;5.33;1.50;;;19.60;99.90;;;;;;4990622;28;20174;-73
2021/01/02 11:27:20;;;;;;;10.03;1.33;;;19.60;99.90;;;;;;4994256;28;20248;-72
2021/01/02 11:29:49;;;;;;;7.27;1.40;;;19.60;99.90;;;;;;4988373;28;20190;-72
2021/01/02 11:32:16;;;;;;;5.13;1.60;;;19.60;99.90;;;;;;4991864;28;20197;-73
2021/01/02 11:34:43;;;;;;;8.60;2.30;;;19.70;99.90;;;;;;4996567;28;20535;-72
2021/01/02 11:37:13;;;;;;;8.77;1.57;;;19.70;99.90;;;;;;4997143;28;20192;-72
2021/01/02 11:39:41;;;;;;;10.50;5.27;;;19.70;99.90;;;;;;4989664;28;20174;-72
2021/01/02 11:42:10;;;;;;;11.57;4.00;;;19.70;99.90;;;;;;4986350;28;20190;-73
2021/01/02 11:44:38;;;;;;;9.03;2.13;;;19.70;99.90;;;;;;4985137;28;20197;-72
2021/01/02 11:47:05;;;;;;;11.90;1.90;;;19.70;99.90;;;;;;4983203;28;20284;-72
2021/01/02 11:49:35;;;;;;;5.90;2.20;;;19.60;99.90;;;;;;4989012;28;20193;-73
2021/01/02 11:52:07;;;;;;;6.10;1.80;;;19.70;99.90;;;;;;4990260;28;20206;-72
2021/01/02 11:54:36;;;;;;;8.57;1.93;;;19.70;99.90;;;;;;4988221;28;20267;-72
2021/01/02 11:57:05;;;;;;;10.10;2.10;;;19.70;99.90;;;;;;4988284;28;20610;-71
2021/01/02 11:59:33;;;;;;;9.57;2.10;;;19.70;99.90;;;;;;4989350;28;20556;-72
2021/01/02 12:02:05;;;;;;;7.67;1.50;;;19.70;99.90;;;;;;4989606;28;20566;-72
2021/01/02 12:04:33;;;;;;;6.60;2.03;;;19.70;99.90;;;;;;4991919;28;20253;-73
2021/01/02 12:07:01;;;;;;;8.70;1.57;;;19.70;99.90;;;;;;4990356;28;20210;-73
2021/01/02 12:09:29;;;;;;;9.63;3.10;;;19.70;99.90;;;;;;4988446;28;20181;-73
2021/01/02 12:11:58;;;;;;;9.40;2.47;;;19.70;99.90;;;;;;4989331;28;20182;-71
2021/01/02 12:14:34;;;;;;;6.57;2.00;;;19.70;99.90;;;;;;4993595;28;20617;-73
2021/01/02 12:17:08;;;;;;;8.90;1.47;;;19.70;99.90;;;;;;4986249;28;20196;-73
2021/01/02 12:19:35;;;;;;;8.07;1.70;;;19.80;99.90;;;;;;4991408;28;20213;-73
2021/01/02 12:22:06;;;;;;;11.83;2.47;;;19.70;99.90;;;;;;4989585;28;20698;-72
2021/01/02 12:24:35;;;;;;;6.43;1.77;;;19.80;99.90;;;;;;4994830;28;20204;-72
2021/01/02 12:27:05;;;;;;;13.87;1.93;;;19.70;99.90;;;;;;4989135;28;20580;-73
2021/01/02 12:29:34;;;;;;;10.63;1.87;;;19.70;99.90;;;;;;4987993;28;20194;-72
2021/01/02 12:32:08;;;;;;;9.23;1.87;;;19.70;99.90;;;;;;4987205;28;20178;-72
2021/01/02 12:34:39;;;;;;;12.67;1.73;;;19.70;99.90;;;;;;4987320;28;20661;-73
2021/01/02 12:37:13;;;;;;;11.07;2.10;;;19.60;99.90;;;;;;4991241;28;20265;-73
2021/01/02 12:39:42;;;;;;;9.33;1.57;;;19.60;99.90;;;;;;4988265;28;20650;-73
2021/01/02 12:42:10;;;;;;;5.70;1.37;;;19.60;99.90;;;;;;4991158;28;20629;-72
2021/01/02 12:44:37;;;;;;;10.70;1.73;;;19.70;99.90;;;;;;4985106;28;20190;-73
2021/01/02 12:47:12;;;;;;;6.67;1.23;;;19.60;99.90;;;;;;4985874;28;20280;-73
2021/01/02 12:49:41;;;;;;;14.53;2.23;;;19.70;99.90;;;;;;4989600;28;20552;-70
2021/01/02 12:52:09;;;;;;;11.90;2.17;;;19.70;99.90;;;;;;4990887;28;20187;-70
2021/01/02 12:54:37;;;;;;;7.17;1.63;;;19.70;99.90;;;;;;4990734;28;20268;-71
2021/01/02 12:57:06;;;;;;;11.10;1.90;;;19.70;99.90;;;;;;4992302;28;20190;-73
2021/01/02 12:59:36;;;;;;;13.63;2.40;;;19.70;99.90;;;;;;4988254;28;20201;-72
2021/01/02 13:02:10;;;;;;;11.03;1.43;;;19.70;99.90;;;;;;4984816;28;20193;-71
2021/01/02 13:04:39;;;;;;;8.83;1.60;;;19.80;99.90;;;;;;4985192;28;20312;-71
2021/01/02 13:07:07;;;;;;;12.77;2.57;;;19.80;99.90;;;;;;4985863;28;20246;-72
2021/01/02 13:09:35;;;;;;;13.30;2.10;;;19.80;99.90;;;;;;4989958;28;20182;-72
2021/01/02 13:12:04;;;;;;;10.67;1.90;;;19.80;99.90;;;;;;4985764;28;20648;-73